Gas Grouper — V7TZ2 — position and weather

sailwx.info

Track history (hours):
 
Tides and Currents Weather Stations Pressure Air Temp Water Temp Dewpoint Dewpoint Depression Visibility Wind Speed Wind Dir Waves Ship Positions

Gas Grouper

Last reported at 2016-May-25 20:31 UTC. Time now 2016-May-27 16:13 UTC.
Position N 38°56' W 009°57'.

Length 174 m; draft 10.4 m.

Type: Tanker. MMSI: 538003910.

Date/timePositionNaut miles runAvg speedWind from/ knotsBaromVisibWave heightAir tempDewpointWater temp
2016-May-25 20:31N 38°56' W 009°57'1613.9
2016-May-25 19:21N 38°40' W 009°56'1113.7
2016-May-25 18:33N 38°30' W 009°51'1814.5
2016-May-25 17:17N 38°12' W 009°48'1014.3
2016-May-25 16:34N 38°01' W 009°45'1514.4
2016-May-25 15:33N 37°47' W 009°41'22712.6
2016-May-24 21:34N 35°59' W 005°32'1110.7
2016-May-24 20:34N 36°02' W 005°19'19614.5
2016-May-24 07:05N 36°33' W 001°19'3714.8
2016-May-24 04:33N 36°40' W 000°33'1515.4
2016-May-24 03:34N 36°42' W 000°15'1615.7
2016-May-24 02:33N 36°45' E 000°05'1615.6
2016-May-24 01:33N 36°48' E 000°24'3415.5
2016-May-23 23:22N 36°54' E 001°06'39014.9
2016-May-22 21:17N 37°38' E 009°12'1115.6
2016-May-22 20:32N 37°39' E 009°27'1515.2
2016-May-22 19:33N 37°38' E 009°46'1414.5
2016-May-22 18:34N 37°39' E 010°04'1414.4
2016-May-22 17:33N 37°38' E 010°22'1514.9
2016-May-22 16:33N 37°35' E 010°40'1514.6
2016-May-22 15:33N 37°30' E 010°58'1514.8
2016-May-22 14:33N 37°25' E 011°15'1515.4
2016-May-22 13:34N 37°19' E 011°33'1515.4
2016-May-22 12:34N 37°12' E 011°50'1515.1
2016-May-22 11:33N 37°04' E 012°07'1515.0
2016-May-22 10:34N 36°58' E 012°24'1514.7
2016-May-22 09:33N 36°50' E 012°40'1414.5
2016-May-22 08:33N 36°44' E 012°56'1514.7
2016-May-22 07:34N 36°39' E 013°13'1514.9
2016-May-22 06:33N 36°35' E 013°31'1514.9
2016-May-22 05:33N 36°31' E 013°49'1515.0
2016-May-22 04:33N 36°26' E 014°07'1515.1
2016-May-22 03:34N 36°22' E 014°25'1514.7
2016-May-22 02:33N 36°18' E 014°42'1514.8
2016-May-22 01:33N 36°14' E 015°00'44413.3
2016-May-20 16:19N 37°08' E 024°09'1114.9
2016-May-20 15:33N 37°19' E 024°13'2215.0
2016-May-20 14:05N 37°38' E 024°28'815.3
2016-May-20 13:33N 37°45' E 024°31'7514.9
2016-May-20 08:30N 38°54' E 025°11'199 5.2
2016-May-18 18:29N 40°49' E 028°43'1213.3
2016-May-18 17:33N 40°57' E 028°56'323 9.2
2016-May-17 06:33N 46°05' E 031°07'1313.5
2016-May-17 05:33N 46°15' E 030°54'1313.1
2016-May-17 04:33N 46°28' E 030°55'9 9.4
2016-May-17 03:33N 46°37' E 031°01'1 0.0
2016-May-15 23:21N 46°36' E 031°01'5 5.9
2016-May-15 22:32N 46°31' E 030°60'0 0.0
2016-May-15 21:29N 46°31' E 030°60'  
Track history (hours):
 
Tides and Currents Weather Stations Pressure Air Temp Water Temp Dewpoint Dewpoint Depression Visibility Wind Speed Wind Dir Waves Ship Positions

Gas Grouper

Last reported at 2016-May-25 20:31 UTC. Time now 2016-May-27 16:13 UTC.
Position N 38°56' W 009°57'.

Length 174 m; draft 10.4 m.

Type: Tanker. MMSI: 538003910.

Date/timePositionNaut miles runAvg speedWind from/ knotsBaromVisibWave heightAir tempDewpointWater temp
2016-May-25 20:31N 38°56' W 009°57'1613.9
2016-May-25 19:21N 38°40' W 009°56'1113.7
2016-May-25 18:33N 38°30' W 009°51'1814.5
2016-May-25 17:17N 38°12' W 009°48'1014.3
2016-May-25 16:34N 38°01' W 009°45'1514.4
2016-May-25 15:33N 37°47' W 009°41'22712.6
2016-May-24 21:34N 35°59' W 005°32'1110.7
2016-May-24 20:34N 36°02' W 005°19'19614.5
2016-May-24 07:05N 36°33' W 001°19'3714.8
2016-May-24 04:33N 36°40' W 000°33'1515.4
2016-May-24 03:34N 36°42' W 000°15'1615.7
2016-May-24 02:33N 36°45' E 000°05'1615.6
2016-May-24 01:33N 36°48' E 000°24'3415.5
2016-May-23 23:22N 36°54' E 001°06'39014.9
2016-May-22 21:17N 37°38' E 009°12'1115.6
2016-May-22 20:32N 37°39' E 009°27'1515.2
2016-May-22 19:33N 37°38' E 009°46'1414.5
2016-May-22 18:34N 37°39' E 010°04'1414.4
2016-May-22 17:33N 37°38' E 010°22'1514.9
2016-May-22 16:33N 37°35' E 010°40'1514.6
2016-May-22 15:33N 37°30' E 010°58'1514.8
2016-May-22 14:33N 37°25' E 011°15'1515.4
2016-May-22 13:34N 37°19' E 011°33'1515.4
2016-May-22 12:34N 37°12' E 011°50'1515.1
2016-May-22 11:33N 37°04' E 012°07'1515.0
2016-May-22 10:34N 36°58' E 012°24'1514.7
2016-May-22 09:33N 36°50' E 012°40'1414.5
2016-May-22 08:33N 36°44' E 012°56'1514.7
2016-May-22 07:34N 36°39' E 013°13'1514.9
2016-May-22 06:33N 36°35' E 013°31'1514.9
2016-May-22 05:33N 36°31' E 013°49'1515.0
2016-May-22 04:33N 36°26' E 014°07'1515.1
2016-May-22 03:34N 36°22' E 014°25'1514.7
2016-May-22 02:33N 36°18' E 014°42'1514.8
2016-May-22 01:33N 36°14' E 015°00'44413.3
2016-May-20 16:19N 37°08' E 024°09'1114.9
2016-May-20 15:33N 37°19' E 024°13'2215.0
2016-May-20 14:05N 37°38' E 024°28'815.3
2016-May-20 13:33N 37°45' E 024°31'7514.9
2016-May-20 08:30N 38°54' E 025°11'199 5.2
2016-May-18 18:29N 40°49' E 028°43'1213.3
2016-May-18 17:33N 40°57' E 028°56'323 9.2
2016-May-17 06:33N 46°05' E 031°07'1313.5
2016-May-17 05:33N 46°15' E 030°54'1313.1
2016-May-17 04:33N 46°28' E 030°55'9 9.4
2016-May-17 03:33N 46°37' E 031°01'1 0.0
2016-May-15 23:21N 46°36' E 031°01'5 5.9
2016-May-15 22:32N 46°31' E 030°60'0 0.0
2016-May-15 21:29N 46°31' E 030°60'  

Dump ship's entire track history